sensor_id;sensor_type;location;lat;lon;timestamp;P1;durP1;ratioP1;P2;durP2;ratioP2
2906;SDS011;1463;51.070;16.998;2023-06-26T00:01:48;12.60;;;6.00;;
2906;SDS011;1463;51.070;16.998;2023-06-26T00:04:16;12.30;;;6.60;;
2906;SDS011;1463;51.070;16.998;2023-06-26T00:06:44;9.43;;;6.30;;
2906;SDS011;1463;51.070;16.998;2023-06-26T00:09:12;11.33;;;6.90;;
2906;SDS011;1463;51.070;16.998;2023-06-26T00:11:40;10.40;;;6.83;;
2906;SDS011;1463;51.070;16.998;2023-06-26T00:14:07;10.40;;;6.63;;
2906;SDS011;1463;51.070;16.998;2023-06-26T00:16:34;11.70;;;7.13;;
2906;SDS011;1463;51.070;16.998;2023-06-26T00:19:03;9.33;;;5.93;;
2906;SDS011;1463;51.070;16.998;2023-06-26T00:21:30;12.60;;;7.50;;
2906;SDS011;1463;51.070;16.998;2023-06-26T00:23:59;12.07;;;7.10;;
2906;SDS011;1463;51.070;16.998;2023-06-26T00:26:26;11.03;;;7.53;;
2906;SDS011;1463;51.070;16.998;2023-06-26T00:28:54;11.37;;;7.03;;
2906;SDS011;1463;51.070;16.998;2023-06-26T00:31:21;10.07;;;5.70;;
2906;SDS011;1463;51.070;16.998;2023-06-26T00:33:48;10.23;;;6.10;;
2906;SDS011;1463;51.070;16.998;2023-06-26T00:36:16;8.27;;;6.27;;
2906;SDS011;1463;51.070;16.998;2023-06-26T00:38:43;8.23;;;5.00;;
2906;SDS011;1463;51.070;16.998;2023-06-26T00:41:12;8.57;;;5.53;;
2906;SDS011;1463;51.070;16.998;2023-06-26T00:43:40;10.23;;;6.40;;
2906;SDS011;1463;51.070;16.998;2023-06-26T00:46:08;10.20;;;5.83;;
2906;SDS011;1463;51.070;16.998;2023-06-26T00:48:36;8.53;;;5.97;;
2906;SDS011;1463;51.070;16.998;2023-06-26T00:51:05;11.97;;;6.60;;
2906;SDS011;1463;51.070;16.998;2023-06-26T00:53:33;14.33;;;5.97;;
2906;SDS011;1463;51.070;16.998;2023-06-26T00:56:01;11.27;;;6.50;;
2906;SDS011;1463;51.070;16.998;2023-06-26T00:58:31;11.23;;;6.10;;
2906;SDS011;1463;51.070;16.998;2023-06-26T01:00:58;9.37;;;5.90;;
2906;SDS011;1463;51.070;16.998;2023-06-26T01:03:26;9.23;;;5.47;;
2906;SDS011;1463;51.070;16.998;2023-06-26T01:05:53;8.03;;;4.90;;
2906;SDS011;1463;51.070;16.998;2023-06-26T01:08:22;7.50;;;4.97;;
2906;SDS011;1463;51.070;16.998;2023-06-26T01:10:51;8.70;;;4.73;;
2906;SDS011;1463;51.070;16.998;2023-06-26T01:13:18;9.00;;;5.47;;
2906;SDS011;1463;51.070;16.998;2023-06-26T01:15:48;18.60;;;6.33;;
2906;SDS011;1463;51.070;16.998;2023-06-26T01:18:16;8.43;;;5.07;;
2906;SDS011;1463;51.070;16.998;2023-06-26T01:20:43;7.57;;;5.50;;
2906;SDS011;1463;51.070;16.998;2023-06-26T01:23:14;9.53;;;5.60;;
2906;SDS011;1463;51.070;16.998;2023-06-26T01:25:51;9.07;;;5.73;;
2906;SDS011;1463;51.070;16.998;2023-06-26T01:28:33;8.57;;;4.80;;
2906;SDS011;1463;51.070;16.998;2023-06-26T01:31:02;7.70;;;5.40;;
2906;SDS011;1463;51.070;16.998;2023-06-26T01:33:32;7.07;;;4.83;;
2906;SDS011;1463;51.070;16.998;2023-06-26T01:35:59;6.93;;;5.03;;
2906;SDS011;1463;51.070;16.998;2023-06-26T01:38:27;8.90;;;4.93;;
2906;SDS011;1463;51.070;16.998;2023-06-26T01:40:55;9.77;;;4.97;;
2906;SDS011;1463;51.070;16.998;2023-06-26T01:43:24;7.53;;;4.73;;
2906;SDS011;1463;51.070;16.998;2023-06-26T01:45:57;6.50;;;5.50;;
2906;SDS011;1463;51.070;16.998;2023-06-26T01:48:30;6.80;;;4.47;;
2906;SDS011;1463;51.070;16.998;2023-06-26T01:51:03;9.13;;;5.30;;
2906;SDS011;1463;51.070;16.998;2023-06-26T01:53:36;11.30;;;4.40;;
2906;SDS011;1463;51.070;16.998;2023-06-26T01:56:08;9.90;;;6.73;;
2906;SDS011;1463;51.070;16.998;2023-06-26T01:58:41;7.93;;;4.93;;
2906;SDS011;1463;51.070;16.998;2023-06-26T02:01:11;7.43;;;5.10;;
2906;SDS011;1463;51.070;16.998;2023-06-26T02:03:39;7.57;;;5.27;;
2906;SDS011;1463;51.070;16.998;2023-06-26T02:06:07;8.27;;;5.20;;
2906;SDS011;1463;51.070;16.998;2023-06-26T02:08:34;8.30;;;5.30;;
2906;SDS011;1463;51.070;16.998;2023-06-26T02:11:02;10.10;;;5.20;;
2906;SDS011;1463;51.070;16.998;2023-06-26T02:13:29;6.90;;;4.60;;
2906;SDS011;1463;51.070;16.998;2023-06-26T02:15:58;11.90;;;5.37;;
2906;SDS011;1463;51.070;16.998;2023-06-26T02:18:26;7.37;;;4.70;;
2906;SDS011;1463;51.070;16.998;2023-06-26T02:20:53;10.83;;;5.33;;
2906;SDS011;1463;51.070;16.998;2023-06-26T02:23:21;6.27;;;4.13;;
2906;SDS011;1463;51.070;16.998;2023-06-26T02:25:48;8.73;;;4.90;;
2906;SDS011;1463;51.070;16.998;2023-06-26T02:28:15;8.33;;;5.00;;
2906;SDS011;1463;51.070;16.998;2023-06-26T02:30:43;8.07;;;5.00;;
2906;SDS011;1463;51.070;16.998;2023-06-26T02:33:12;8.27;;;5.77;;
2906;SDS011;1463;51.070;16.998;2023-06-26T02:35:39;7.53;;;5.40;;
2906;SDS011;1463;51.070;16.998;2023-06-26T02:38:07;7.03;;;4.53;;
2906;SDS011;1463;51.070;16.998;2023-06-26T02:40:35;7.77;;;5.27;;
2906;SDS011;1463;51.070;16.998;2023-06-26T02:43:02;6.73;;;4.53;;
2906;SDS011;1463;51.070;16.998;2023-06-26T02:45:30;8.63;;;4.67;;
2906;SDS011;1463;51.070;16.998;2023-06-26T02:47:57;7.93;;;5.30;;
2906;SDS011;1463;51.070;16.998;2023-06-26T02:50:26;6.03;;;4.27;;
2906;SDS011;1463;51.070;16.998;2023-06-26T02:52:53;11.37;;;5.73;;
2906;SDS011;1463;51.070;16.998;2023-06-26T02:55:21;7.83;;;4.70;;
2906;SDS011;1463;51.070;16.998;2023-06-26T02:57:48;5.87;;;4.57;;
2906;SDS011;1463;51.070;16.998;2023-06-26T03:00:16;8.70;;;5.60;;
2906;SDS011;1463;51.070;16.998;2023-06-26T03:02:43;6.47;;;4.43;;
2906;SDS011;1463;51.070;16.998;2023-06-26T03:05:11;7.80;;;5.70;;
2906;SDS011;1463;51.070;16.998;2023-06-26T03:07:41;10.37;;;4.60;;
2906;SDS011;1463;51.070;16.998;2023-06-26T03:10:08;10.93;;;5.33;;
2906;SDS011;1463;51.070;16.998;2023-06-26T03:12:36;7.70;;;4.63;;
2906;SDS011;1463;51.070;16.998;2023-06-26T03:15:04;7.00;;;4.83;;
2906;SDS011;1463;51.070;16.998;2023-06-26T03:17:32;7.97;;;4.90;;
2906;SDS011;1463;51.070;16.998;2023-06-26T03:20:00;7.70;;;4.63;;
2906;SDS011;1463;51.070;16.998;2023-06-26T03:22:27;6.83;;;4.93;;
2906;SDS011;1463;51.070;16.998;2023-06-26T03:24:56;9.00;;;5.40;;
2906;SDS011;1463;51.070;16.998;2023-06-26T03:27:24;11.53;;;5.10;;
2906;SDS011;1463;51.070;16.998;2023-06-26T03:29:52;10.00;;;5.70;;
2906;SDS011;1463;51.070;16.998;2023-06-26T03:32:19;7.40;;;4.73;;
2906;SDS011;1463;51.070;16.998;2023-06-26T03:34:47;9.90;;;4.80;;
2906;SDS011;1463;51.070;16.998;2023-06-26T03:37:14;10.50;;;5.50;;
2906;SDS011;1463;51.070;16.998;2023-06-26T03:39:41;6.30;;;4.00;;
2906;SDS011;1463;51.070;16.998;2023-06-26T03:42:10;9.27;;;5.00;;
2906;SDS011;1463;51.070;16.998;2023-06-26T03:44:38;6.80;;;4.63;;
2906;SDS011;1463;51.070;16.998;2023-06-26T03:47:05;6.27;;;4.20;;
2906;SDS011;1463;51.070;16.998;2023-06-26T03:49:33;5.90;;;4.80;;
2906;SDS011;1463;51.070;16.998;2023-06-26T03:52:00;6.67;;;4.60;;
2906;SDS011;1463;51.070;16.998;2023-06-26T03:54:27;6.33;;;4.60;;
2906;SDS011;1463;51.070;16.998;2023-06-26T03:56:55;7.97;;;4.50;;
2906;SDS011;1463;51.070;16.998;2023-06-26T03:59:24;6.97;;;4.47;;
2906;SDS011;1463;51.070;16.998;2023-06-26T04:01:51;16.33;;;6.50;;
2906;SDS011;1463;51.070;16.998;2023-06-26T04:04:19;15.80;;;4.33;;
2906;SDS011;1463;51.070;16.998;2023-06-26T04:06:46;5.73;;;4.40;;
2906;SDS011;1463;51.070;16.998;2023-06-26T04:09:13;9.20;;;5.40;;
2906;SDS011;1463;51.070;16.998;2023-06-26T04:11:42;6.27;;;4.13;;
2906;SDS011;1463;51.070;16.998;2023-06-26T04:14:10;6.50;;;4.23;;
2906;SDS011;1463;51.070;16.998;2023-06-26T04:16:39;7.30;;;4.47;;
2906;SDS011;1463;51.070;16.998;2023-06-26T04:19:07;8.07;;;4.77;;
2906;SDS011;1463;51.070;16.998;2023-06-26T04:21:35;12.90;;;4.90;;
2906;SDS011;1463;51.070;16.998;2023-06-26T04:24:03;7.63;;;4.87;;
2906;SDS011;1463;51.070;16.998;2023-06-26T04:26:30;9.50;;;5.80;;
2906;SDS011;1463;51.070;16.998;2023-06-26T04:28:58;8.40;;;5.70;;
2906;SDS011;1463;51.070;16.998;2023-06-26T04:31:26;7.80;;;5.03;;
2906;SDS011;1463;51.070;16.998;2023-06-26T04:33:55;10.17;;;5.30;;
2906;SDS011;1463;51.070;16.998;2023-06-26T04:36:24;5.17;;;4.10;;
2906;SDS011;1463;51.070;16.998;2023-06-26T04:38:53;5.43;;;3.47;;
2906;SDS011;1463;51.070;16.998;2023-06-26T04:41:21;8.70;;;4.50;;
2906;SDS011;1463;51.070;16.998;2023-06-26T04:43:49;8.00;;;4.33;;
2906;SDS011;1463;51.070;16.998;2023-06-26T04:46:16;8.20;;;5.10;;
2906;SDS011;1463;51.070;16.998;2023-06-26T04:48:44;7.90;;;4.50;;
2906;SDS011;1463;51.070;16.998;2023-06-26T04:51:13;7.00;;;4.07;;
2906;SDS011;1463;51.070;16.998;2023-06-26T04:53:41;6.50;;;4.33;;
2906;SDS011;1463;51.070;16.998;2023-06-26T04:56:08;7.80;;;4.37;;
2906;SDS011;1463;51.070;16.998;2023-06-26T04:58:36;10.27;;;4.83;;
2906;SDS011;1463;51.070;16.998;2023-06-26T05:01:04;5.83;;;3.90;;
2906;SDS011;1463;51.070;16.998;2023-06-26T05:03:33;7.13;;;4.37;;
2906;SDS011;1463;51.070;16.998;2023-06-26T05:06:01;5.73;;;4.00;;
2906;SDS011;1463;51.070;16.998;2023-06-26T05:08:30;7.33;;;4.47;;
2906;SDS011;1463;51.070;16.998;2023-06-26T05:10:58;7.10;;;4.40;;
2906;SDS011;1463;51.070;16.998;2023-06-26T05:13:26;15.33;;;4.53;;
2906;SDS011;1463;51.070;16.998;2023-06-26T05:15:53;7.30;;;4.50;;
2906;SDS011;1463;51.070;16.998;2023-06-26T05:18:21;6.73;;;4.30;;
2906;SDS011;1463;51.070;16.998;2023-06-26T05:20:48;9.80;;;3.67;;
2906;SDS011;1463;51.070;16.998;2023-06-26T05:23:17;6.57;;;3.67;;
2906;SDS011;1463;51.070;16.998;2023-06-26T05:25:47;5.67;;;4.03;;
2906;SDS011;1463;51.070;16.998;2023-06-26T05:28:15;6.60;;;4.10;;
2906;SDS011;1463;51.070;16.998;2023-06-26T05:30:43;6.50;;;4.30;;
2906;SDS011;1463;51.070;16.998;2023-06-26T05:33:12;6.20;;;3.77;;
2906;SDS011;1463;51.070;16.998;2023-06-26T05:35:45;8.80;;;4.77;;
2906;SDS011;1463;51.070;16.998;2023-06-26T05:38:14;9.47;;;4.40;;
2906;SDS011;1463;51.070;16.998;2023-06-26T05:40:42;6.97;;;3.77;;
2906;SDS011;1463;51.070;16.998;2023-06-26T05:43:12;6.07;;;3.90;;
2906;SDS011;1463;51.070;16.998;2023-06-26T05:45:40;7.87;;;3.87;;
2906;SDS011;1463;51.070;16.998;2023-06-26T05:48:08;7.77;;;3.97;;
2906;SDS011;1463;51.070;16.998;2023-06-26T05:50:36;14.37;;;4.70;;
2906;SDS011;1463;51.070;16.998;2023-06-26T05:53:04;4.80;;;3.17;;
2906;SDS011;1463;51.070;16.998;2023-06-26T05:55:32;5.40;;;3.50;;
2906;SDS011;1463;51.070;16.998;2023-06-26T05:58:00;6.73;;;3.77;;
2906;SDS011;1463;51.070;16.998;2023-06-26T06:00:31;8.53;;;3.90;;
2906;SDS011;1463;51.070;16.998;2023-06-26T06:02:59;6.77;;;3.90;;
2906;SDS011;1463;51.070;16.998;2023-06-26T06:05:26;6.50;;;4.03;;
2906;SDS011;1463;51.070;16.998;2023-06-26T06:07:53;5.20;;;3.47;;
2906;SDS011;1463;51.070;16.998;2023-06-26T06:10:21;7.10;;;3.50;;
2906;SDS011;1463;51.070;16.998;2023-06-26T06:12:49;8.40;;;4.13;;
2906;SDS011;1463;51.070;16.998;2023-06-26T06:15:17;6.13;;;3.90;;
2906;SDS011;1463;51.070;16.998;2023-06-26T06:17:46;6.10;;;3.80;;
2906;SDS011;1463;51.070;16.998;2023-06-26T06:20:14;6.23;;;3.77;;
2906;SDS011;1463;51.070;16.998;2023-06-26T06:22:41;5.37;;;3.80;;
2906;SDS011;1463;51.070;16.998;2023-06-26T06:25:09;6.70;;;3.50;;
2906;SDS011;1463;51.070;16.998;2023-06-26T06:27:36;7.00;;;3.70;;
2906;SDS011;1463;51.070;16.998;2023-06-26T06:30:04;12.57;;;3.00;;
2906;SDS011;1463;51.070;16.998;2023-06-26T06:32:33;4.80;;;2.93;;
2906;SDS011;1463;51.070;16.998;2023-06-26T06:35:02;6.43;;;3.67;;
2906;SDS011;1463;51.070;16.998;2023-06-26T06:37:35;5.73;;;3.40;;
2906;SDS011;1463;51.070;16.998;2023-06-26T06:40:04;7.00;;;4.40;;
2906;SDS011;1463;51.070;16.998;2023-06-26T06:42:33;6.00;;;4.03;;
2906;SDS011;1463;51.070;16.998;2023-06-26T06:45:01;4.97;;;3.30;;
2906;SDS011;1463;51.070;16.998;2023-06-26T06:47:29;8.10;;;3.50;;
2906;SDS011;1463;51.070;16.998;2023-06-26T06:49:56;4.83;;;2.93;;
2906;SDS011;1463;51.070;16.998;2023-06-26T06:52:25;7.17;;;3.47;;
2906;SDS011;1463;51.070;16.998;2023-06-26T06:54:53;5.23;;;3.63;;
2906;SDS011;1463;51.070;16.998;2023-06-26T06:57:23;7.40;;;3.37;;
2906;SDS011;1463;51.070;16.998;2023-06-26T06:59:51;5.00;;;3.10;;
2906;SDS011;1463;51.070;16.998;2023-06-26T07:02:18;6.77;;;3.47;;
2906;SDS011;1463;51.070;16.998;2023-06-26T07:04:46;4.67;;;3.27;;
2906;SDS011;1463;51.070;16.998;2023-06-26T07:07:13;4.87;;;3.13;;
2906;SDS011;1463;51.070;16.998;2023-06-26T07:09:45;11.13;;;3.47;;
2906;SDS011;1463;51.070;16.998;2023-06-26T07:12:13;6.03;;;3.33;;
2906;SDS011;1463;51.070;16.998;2023-06-26T07:14:40;4.23;;;2.50;;
2906;SDS011;1463;51.070;16.998;2023-06-26T07:17:08;5.97;;;3.37;;
2906;SDS011;1463;51.070;16.998;2023-06-26T07:19:36;5.10;;;3.30;;
2906;SDS011;1463;51.070;16.998;2023-06-26T07:22:03;6.63;;;3.30;;
2906;SDS011;1463;51.070;16.998;2023-06-26T07:24:31;5.90;;;3.10;;
2906;SDS011;1463;51.070;16.998;2023-06-26T07:27:00;4.73;;;3.07;;
2906;SDS011;1463;51.070;16.998;2023-06-26T07:29:28;5.80;;;2.67;;
2906;SDS011;1463;51.070;16.998;2023-06-26T07:31:55;4.23;;;2.97;;
2906;SDS011;1463;51.070;16.998;2023-06-26T07:34:23;5.37;;;3.63;;
2906;SDS011;1463;51.070;16.998;2023-06-26T07:36:50;5.33;;;2.53;;
2906;SDS011;1463;51.070;16.998;2023-06-26T07:39:18;4.70;;;2.70;;
2906;SDS011;1463;51.070;16.998;2023-06-26T07:41:45;3.60;;;2.50;;
2906;SDS011;1463;51.070;16.998;2023-06-26T07:44:14;4.13;;;2.67;;
2906;SDS011;1463;51.070;16.998;2023-06-26T07:46:42;7.80;;;3.60;;
2906;SDS011;1463;51.070;16.998;2023-06-26T07:49:10;4.40;;;3.10;;
2906;SDS011;1463;51.070;16.998;2023-06-26T07:51:37;3.73;;;2.47;;
2906;SDS011;1463;51.070;16.998;2023-06-26T07:54:05;6.53;;;3.20;;
2906;SDS011;1463;51.070;16.998;2023-06-26T07:56:34;4.33;;;2.80;;
2906;SDS011;1463;51.070;16.998;2023-06-26T07:59:20;5.80;;;3.50;;
2906;SDS011;1463;51.070;16.998;2023-06-26T08:01:48;10.43;;;3.70;;
2906;SDS011;1463;51.070;16.998;2023-06-26T08:04:17;5.20;;;3.17;;
2906;SDS011;1463;51.070;16.998;2023-06-26T08:06:47;5.50;;;2.97;;
2906;SDS011;1463;51.070;16.998;2023-06-26T08:09:15;5.90;;;2.70;;
2906;SDS011;1463;51.070;16.998;2023-06-26T08:11:44;4.77;;;2.60;;
2906;SDS011;1463;51.070;16.998;2023-06-26T08:14:11;6.33;;;3.10;;
2906;SDS011;1463;51.070;16.998;2023-06-26T08:16:40;5.00;;;3.20;;
2906;SDS011;1463;51.070;16.998;2023-06-26T08:19:09;4.80;;;3.03;;
2906;SDS011;1463;51.070;16.998;2023-06-26T08:21:36;5.00;;;2.73;;
2906;SDS011;1463;51.070;16.998;2023-06-26T08:24:04;4.03;;;2.50;;
2906;SDS011;1463;51.070;16.998;2023-06-26T08:26:32;5.53;;;2.70;;
2906;SDS011;1463;51.070;16.998;2023-06-26T08:29:00;4.03;;;2.30;;
2906;SDS011;1463;51.070;16.998;2023-06-26T08:31:32;5.43;;;2.73;;
2906;SDS011;1463;51.070;16.998;2023-06-26T08:34:02;4.23;;;2.40;;
2906;SDS011;1463;51.070;16.998;2023-06-26T08:36:30;4.70;;;2.70;;
2906;SDS011;1463;51.070;16.998;2023-06-26T08:38:58;5.03;;;2.50;;
2906;SDS011;1463;51.070;16.998;2023-06-26T08:41:25;3.47;;;2.10;;
2906;SDS011;1463;51.070;16.998;2023-06-26T08:43:53;4.03;;;2.50;;
2906;SDS011;1463;51.070;16.998;2023-06-26T08:46:21;4.30;;;2.57;;
2906;SDS011;1463;51.070;16.998;2023-06-26T08:48:49;4.60;;;2.50;;
2906;SDS011;1463;51.070;16.998;2023-06-26T08:51:23;5.93;;;2.77;;
2906;SDS011;1463;51.070;16.998;2023-06-26T08:53:56;4.60;;;2.40;;
2906;SDS011;1463;51.070;16.998;2023-06-26T08:56:26;4.50;;;2.83;;
2906;SDS011;1463;51.070;16.998;2023-06-26T08:58:56;4.53;;;2.70;;
2906;SDS011;1463;51.070;16.998;2023-06-26T09:01:24;4.10;;;2.60;;
2906;SDS011;1463;51.070;16.998;2023-06-26T09:03:52;5.00;;;2.63;;
2906;SDS011;1463;51.070;16.998;2023-06-26T09:06:20;3.80;;;2.30;;
2906;SDS011;1463;51.070;16.998;2023-06-26T09:08:49;3.20;;;2.27;;
2906;SDS011;1463;51.070;16.998;2023-06-26T09:11:16;5.13;;;2.30;;
2906;SDS011;1463;51.070;16.998;2023-06-26T09:13:44;3.80;;;2.47;;
2906;SDS011;1463;51.070;16.998;2023-06-26T09:16:12;4.53;;;2.13;;
2906;SDS011;1463;51.070;16.998;2023-06-26T09:18:40;3.80;;;2.50;;
2906;SDS011;1463;51.070;16.998;2023-06-26T09:21:09;9.00;;;3.77;;
2906;SDS011;1463;51.070;16.998;2023-06-26T09:23:39;3.87;;;2.50;;
2906;SDS011;1463;51.070;16.998;2023-06-26T09:26:08;5.23;;;2.83;;
2906;SDS011;1463;51.070;16.998;2023-06-26T09:28:37;5.10;;;2.90;;
2906;SDS011;1463;51.070;16.998;2023-06-26T09:31:05;4.37;;;2.10;;
2906;SDS011;1463;51.070;16.998;2023-06-26T09:33:35;5.50;;;3.40;;
2906;SDS011;1463;51.070;16.998;2023-06-26T09:36:05;3.07;;;2.30;;
2906;SDS011;1463;51.070;16.998;2023-06-26T09:38:35;4.87;;;2.87;;
2906;SDS011;1463;51.070;16.998;2023-06-26T09:41:02;3.57;;;2.10;;
2906;SDS011;1463;51.070;16.998;2023-06-26T09:43:32;4.27;;;2.37;;
2906;SDS011;1463;51.070;16.998;2023-06-26T09:46:00;3.77;;;2.20;;
2906;SDS011;1463;51.070;16.998;2023-06-26T09:48:28;4.67;;;2.20;;
2906;SDS011;1463;51.070;16.998;2023-06-26T09:50:55;4.70;;;2.40;;
2906;SDS011;1463;51.070;16.998;2023-06-26T09:53:23;3.27;;;2.50;;
2906;SDS011;1463;51.070;16.998;2023-06-26T09:55:53;4.10;;;2.17;;
2906;SDS011;1463;51.070;16.998;2023-06-26T09:58:20;5.97;;;3.07;;
2906;SDS011;1463;51.070;16.998;2023-06-26T10:00:52;3.70;;;2.40;;
2906;SDS011;1463;51.070;16.998;2023-06-26T10:03:20;3.77;;;2.10;;
2906;SDS011;1463;51.070;16.998;2023-06-26T10:05:47;4.33;;;2.80;;
2906;SDS011;1463;51.070;16.998;2023-06-26T10:08:16;3.53;;;2.80;;
2906;SDS011;1463;51.070;16.998;2023-06-26T10:10:44;2.97;;;2.47;;
2906;SDS011;1463;51.070;16.998;2023-06-26T10:13:15;4.27;;;2.57;;
2906;SDS011;1463;51.070;16.998;2023-06-26T10:15:45;3.93;;;2.40;;
2906;SDS011;1463;51.070;16.998;2023-06-26T10:18:15;5.23;;;3.07;;
2906;SDS011;1463;51.070;16.998;2023-06-26T10:20:44;3.87;;;1.97;;
2906;SDS011;1463;51.070;16.998;2023-06-26T10:23:15;3.60;;;1.90;;
2906;SDS011;1463;51.070;16.998;2023-06-26T10:25:46;3.43;;;2.00;;
2906;SDS011;1463;51.070;16.998;2023-06-26T10:28:17;4.50;;;2.60;;
2906;SDS011;1463;51.070;16.998;2023-06-26T10:30:46;4.23;;;2.63;;
2906;SDS011;1463;51.070;16.998;2023-06-26T10:33:18;4.93;;;3.00;;
2906;SDS011;1463;51.070;16.998;2023-06-26T10:35:46;4.40;;;2.40;;
2906;SDS011;1463;51.070;16.998;2023-06-26T10:38:14;3.30;;;1.87;;
2906;SDS011;1463;51.070;16.998;2023-06-26T10:40:43;4.70;;;2.63;;
2906;SDS011;1463;51.070;16.998;2023-06-26T10:43:14;3.00;;;1.87;;
2906;SDS011;1463;51.070;16.998;2023-06-26T10:45:44;4.33;;;2.60;;
2906;SDS011;1463;51.070;16.998;2023-06-26T10:48:18;6.27;;;3.60;;
2906;SDS011;1463;51.070;16.998;2023-06-26T10:50:48;5.70;;;3.40;;
2906;SDS011;1463;51.070;16.998;2023-06-26T10:53:21;6.00;;;4.30;;
2906;SDS011;1463;51.070;16.998;2023-06-26T10:55:54;5.13;;;2.70;;
2906;SDS011;1463;51.070;16.998;2023-06-26T10:58:26;3.67;;;2.03;;
2906;SDS011;1463;51.070;16.998;2023-06-26T11:03:47;4.60;;;2.50;;
2906;SDS011;1463;51.070;16.998;2023-06-26T11:06:23;3.60;;;2.30;;
2906;SDS011;1463;51.070;16.998;2023-06-26T11:08:52;7.23;;;2.60;;
2906;SDS011;1463;51.070;16.998;2023-06-26T11:11:21;4.00;;;2.60;;
2906;SDS011;1463;51.070;16.998;2023-06-26T11:13:49;3.47;;;2.30;;
2906;SDS011;1463;51.070;16.998;2023-06-26T11:16:16;3.83;;;2.40;;
2906;SDS011;1463;51.070;16.998;2023-06-26T11:18:44;3.43;;;2.20;;
2906;SDS011;1463;51.070;16.998;2023-06-26T11:21:14;3.40;;;2.50;;
2906;SDS011;1463;51.070;16.998;2023-06-26T11:23:41;3.70;;;2.60;;
2906;SDS011;1463;51.070;16.998;2023-06-26T11:26:15;6.33;;;2.17;;
2906;SDS011;1463;51.070;16.998;2023-06-26T11:28:46;3.33;;;2.63;;
2906;SDS011;1463;51.070;16.998;2023-06-26T11:31:24;3.33;;;2.00;;
2906;SDS011;1463;51.070;16.998;2023-06-26T11:33:54;3.50;;;1.97;;
2906;SDS011;1463;51.070;16.998;2023-06-26T11:36:23;3.70;;;2.40;;
2906;SDS011;1463;51.070;16.998;2023-06-26T11:38:53;3.40;;;2.00;;
2906;SDS011;1463;51.070;16.998;2023-06-26T11:41:22;3.60;;;2.03;;
2906;SDS011;1463;51.070;16.998;2023-06-26T11:43:50;4.23;;;2.13;;
2906;SDS011;1463;51.070;16.998;2023-06-26T11:46:18;5.53;;;2.80;;
2906;SDS011;1463;51.070;16.998;2023-06-26T11:48:47;3.80;;;2.30;;
2906;SDS011;1463;51.070;16.998;2023-06-26T11:51:16;4.83;;;2.83;;
2906;SDS011;1463;51.070;16.998;2023-06-26T11:53:44;3.40;;;1.90;;
2906;SDS011;1463;51.070;16.998;2023-06-26T11:56:13;4.00;;;2.13;;
2906;SDS011;1463;51.070;16.998;2023-06-26T11:58:58;3.30;;;2.00;;
2906;SDS011;1463;51.070;16.998;2023-06-26T12:01:31;3.63;;;1.90;;
2906;SDS011;1463;51.070;16.998;2023-06-26T12:04:00;3.93;;;2.37;;
2906;SDS011;1463;51.070;16.998;2023-06-26T12:06:30;3.20;;;2.00;;
2906;SDS011;1463;51.070;16.998;2023-06-26T12:09:00;3.53;;;2.20;;
2906;SDS011;1463;51.070;16.998;2023-06-26T12:11:30;3.73;;;2.53;;
2906;SDS011;1463;51.070;16.998;2023-06-26T12:13:59;2.90;;;1.73;;
2906;SDS011;1463;51.070;16.998;2023-06-26T12:16:32;3.00;;;1.57;;
2906;SDS011;1463;51.070;16.998;2023-06-26T12:19:03;4.20;;;2.17;;
2906;SDS011;1463;51.070;16.998;2023-06-26T12:21:47;3.50;;;2.17;;
2906;SDS011;1463;51.070;16.998;2023-06-26T12:24:18;2.43;;;1.73;;
2906;SDS011;1463;51.070;16.998;2023-06-26T12:26:47;3.27;;;1.70;;
2906;SDS011;1463;51.070;16.998;2023-06-26T12:29:19;4.03;;;2.47;;
2906;SDS011;1463;51.070;16.998;2023-06-26T12:31:51;3.40;;;2.07;;
2906;SDS011;1463;51.070;16.998;2023-06-26T12:34:19;3.30;;;1.87;;
2906;SDS011;1463;51.070;16.998;2023-06-26T12:36:51;4.60;;;2.13;;
2906;SDS011;1463;51.070;16.998;2023-06-26T12:39:20;3.73;;;2.20;;
2906;SDS011;1463;51.070;16.998;2023-06-26T12:41:48;3.83;;;2.10;;
2906;SDS011;1463;51.070;16.998;2023-06-26T12:44:21;4.50;;;2.30;;
2906;SDS011;1463;51.070;16.998;2023-06-26T12:46:53;3.03;;;2.07;;
2906;SDS011;1463;51.070;16.998;2023-06-26T12:49:30;4.50;;;2.27;;
2906;SDS011;1463;51.070;16.998;2023-06-26T12:52:01;5.20;;;2.30;;
2906;SDS011;1463;51.070;16.998;2023-06-26T12:54:30;3.17;;;1.77;;
2906;SDS011;1463;51.070;16.998;2023-06-26T12:56:58;3.77;;;1.93;;
2906;SDS011;1463;51.070;16.998;2023-06-26T12:59:26;3.30;;;2.00;;
2906;SDS011;1463;51.070;16.998;2023-06-26T13:01:53;4.77;;;2.63;;
2906;SDS011;1463;51.070;16.998;2023-06-26T13:04:21;4.17;;;1.87;;
2906;SDS011;1463;51.070;16.998;2023-06-26T13:06:49;3.93;;;2.00;;
2906;SDS011;1463;51.070;16.998;2023-06-26T13:09:18;3.80;;;2.40;;
2906;SDS011;1463;51.070;16.998;2023-06-26T13:11:45;3.50;;;2.10;;
2906;SDS011;1463;51.070;16.998;2023-06-26T13:14:13;3.33;;;1.80;;
2906;SDS011;1463;51.070;16.998;2023-06-26T13:16:41;4.10;;;1.93;;
2906;SDS011;1463;51.070;16.998;2023-06-26T13:19:08;3.70;;;2.33;;
2906;SDS011;1463;51.070;16.998;2023-06-26T13:21:36;4.47;;;2.60;;
2906;SDS011;1463;51.070;16.998;2023-06-26T13:24:04;3.77;;;2.00;;
2906;SDS011;1463;51.070;16.998;2023-06-26T13:26:33;5.40;;;2.03;;
2906;SDS011;1463;51.070;16.998;2023-06-26T13:29:01;3.10;;;2.10;;
2906;SDS011;1463;51.070;16.998;2023-06-26T13:31:29;4.33;;;2.00;;
2906;SDS011;1463;51.070;16.998;2023-06-26T13:33:57;2.50;;;1.60;;
2906;SDS011;1463;51.070;16.998;2023-06-26T13:36:25;3.13;;;2.03;;
2906;SDS011;1463;51.070;16.998;2023-06-26T13:38:53;3.30;;;2.00;;
2906;SDS011;1463;51.070;16.998;2023-06-26T13:41:22;3.53;;;2.00;;
2906;SDS011;1463;51.070;16.998;2023-06-26T13:43:51;4.00;;;1.90;;
2906;SDS011;1463;51.070;16.998;2023-06-26T13:46:18;2.80;;;1.80;;
2906;SDS011;1463;51.070;16.998;2023-06-26T13:48:46;3.77;;;2.07;;
2906;SDS011;1463;51.070;16.998;2023-06-26T13:51:13;4.00;;;1.90;;
2906;SDS011;1463;51.070;16.998;2023-06-26T13:53:41;4.43;;;2.13;;
2906;SDS011;1463;51.070;16.998;2023-06-26T13:56:08;3.50;;;2.13;;
2906;SDS011;1463;51.070;16.998;2023-06-26T13:58:36;3.57;;;2.23;;
2906;SDS011;1463;51.070;16.998;2023-06-26T14:01:06;3.20;;;2.07;;
2906;SDS011;1463;51.070;16.998;2023-06-26T14:03:33;3.00;;;2.00;;
2906;SDS011;1463;51.070;16.998;2023-06-26T14:06:01;3.47;;;1.80;;
2906;SDS011;1463;51.070;16.998;2023-06-26T14:08:29;3.23;;;2.10;;
2906;SDS011;1463;51.070;16.998;2023-06-26T14:10:56;3.17;;;1.83;;
2906;SDS011;1463;51.070;16.998;2023-06-26T14:13:25;5.30;;;2.60;;
2906;SDS011;1463;51.070;16.998;2023-06-26T14:15:52;2.40;;;1.70;;
2906;SDS011;1463;51.070;16.998;2023-06-26T14:18:25;3.87;;;2.20;;
2906;SDS011;1463;51.070;16.998;2023-06-26T14:20:53;3.93;;;2.10;;
2906;SDS011;1463;51.070;16.998;2023-06-26T14:23:22;4.80;;;2.00;;
2906;SDS011;1463;51.070;16.998;2023-06-26T14:25:50;3.87;;;1.93;;
2906;SDS011;1463;51.070;16.998;2023-06-26T14:28:17;4.90;;;2.60;;
2906;SDS011;1463;51.070;16.998;2023-06-26T14:30:45;5.47;;;2.67;;
2906;SDS011;1463;51.070;16.998;2023-06-26T14:33:13;3.80;;;1.93;;
2906;SDS011;1463;51.070;16.998;2023-06-26T14:35:41;3.40;;;2.20;;
2906;SDS011;1463;51.070;16.998;2023-06-26T14:38:09;3.77;;;1.83;;
2906;SDS011;1463;51.070;16.998;2023-06-26T14:40:36;3.10;;;2.10;;
2906;SDS011;1463;51.070;16.998;2023-06-26T14:43:04;4.80;;;2.77;;
2906;SDS011;1463;51.070;16.998;2023-06-26T14:45:31;3.10;;;1.90;;
2906;SDS011;1463;51.070;16.998;2023-06-26T14:47:59;3.23;;;2.00;;
2906;SDS011;1463;51.070;16.998;2023-06-26T14:50:26;4.20;;;2.97;;
2906;SDS011;1463;51.070;16.998;2023-06-26T14:52:55;3.23;;;1.80;;
2906;SDS011;1463;51.070;16.998;2023-06-26T14:55:23;3.03;;;1.97;;
2906;SDS011;1463;51.070;16.998;2023-06-26T14:57:51;3.50;;;2.13;;
2906;SDS011;1463;51.070;16.998;2023-06-26T15:00:19;3.97;;;2.17;;
2906;SDS011;1463;51.070;16.998;2023-06-26T15:02:47;4.30;;;2.37;;
2906;SDS011;1463;51.070;16.998;2023-06-26T15:05:18;3.50;;;2.10;;
2906;SDS011;1463;51.070;16.998;2023-06-26T15:07:46;3.90;;;2.03;;
2906;SDS011;1463;51.070;16.998;2023-06-26T15:10:15;5.00;;;1.77;;
2906;SDS011;1463;51.070;16.998;2023-06-26T15:12:43;8.07;;;2.90;;